• Join FlightAware (Why Join?)
  • Login
  • US Flag 
01:40AM EST


 

Airport Tracker/Info


-or-


 

Live Flight TrackerFlight Track Log ✈ OPT332 ✈ 08-Sep-2013 ✈ KSFO - KDAL

Flight Track Log - Related Links

Times and Time Zones

All times are in EDT time to prevent confusion due to time zone crossing. See the OPT332 flight status page for this flight to view local times or setup timezone preferences in your user account.

Time Position Orientation Groundspeed Altitude Reporting Facility
EDT Latitude Longitude Course Direction KTS MPH feet Rate Location/Type
05:53PM 37.6383 -122.4160 302° West 183 211 1,900  Level FlightAware ADS-B
05:53PM 37.6439 -122.4330 293° West 205 236 2,600 2,182 Climbing FlightAware ADS-B
05:53PM 37.6461 -122.4390 295° West 214 246 2,700 1,333 Climbing FlightAware ADS-B
05:53PM 37.6479 -122.4430 300° West 217 250 2,800 947 Climbing FlightAware ADS-B
05:54PM 37.6556 -122.4600 300° West 224 258 3,000 750 Climbing FlightAware ADS-B
05:54PM 37.6608 -122.4710 301° West 221 254 3,100 316 Climbing FlightAware ADS-B
05:54PM 37.6656 -122.4820 299° West 219 252 3,100 273 Level FlightAware ADS-B
05:54PM 37.6703 -122.4950 295° West 211 243 3,200 800 Climbing FlightAware ADS-B
05:54PM 37.6709 -122.4990 281° West 208 239 3,300 1,714 Climbing FlightAware ADS-B
05:54PM 37.6707 -122.5040 267° West 209 241 3,400 1,500 Climbing FlightAware ADS-B
05:54PM 37.6698 -122.5080 254° West 211 243 3,500 1,500 Climbing FlightAware ADS-B
05:54PM 37.6682 -122.5130 248° West 210 242 3,600 2,308 Climbing FlightAware ADS-B
05:54PM 37.6620 -122.5210 226° Southwest 212 244 4,000 2,769 Climbing FlightAware ADS-B
05:55PM 37.6584 -122.5240 213° Southwest 215 247 4,200 3,000 Climbing FlightAware ADS-B
05:55PM 37.6439 -122.5370 215° Southwest 222 255 5,100 3,273 Climbing FlightAware ADS-B
05:55PM 37.6394 -122.5380 190° South 218 251 5,400 4,000 Climbing FlightAware ADS-B
05:55PM 37.6257 -122.5360 173° South 214 246 6,300 4,000 Climbing FlightAware ADS-B
05:55PM 37.6223 -122.5340 155° Southeast 213 245 6,600 3,714 Climbing FlightAware ADS-B
05:55PM 37.6066 -122.5240 153° Southeast 216 249 7,600 3,455 Climbing FlightAware ADS-B
05:56PM 37.5929 -122.5160 155° Southeast 218 251 8,500 3,455 Climbing FlightAware ADS-B
05:56PM 37.5774 -122.5060 153° Southeast 218 251 9,500 3,176 Climbing FlightAware ADS-B
05:57PM 37.5450 -122.4860 154° Southeast 232 267 11,200 3,000 Climbing FlightAware ADS-B
05:57PM 37.5349 -122.4800 155° Southeast 244 281 11,700 2,800 Climbing FlightAware ADS-B
05:57PM 37.5298 -122.4750 142° Southeast 246 283 11,900 2,667 Climbing FlightAware ADS-B
05:57PM 37.5263 -122.4710 138° Southeast 245 282 12,100 2,667 Climbing FlightAware ADS-B
05:57PM 37.5233 -122.4670 133° Southeast 246 283 12,300 2,571 Climbing FlightAware ADS-B
05:57PM 37.5018 -122.4300 126° Southeast 267 307 13,600 2,542 Climbing FlightAware ADS-B
05:58PM 37.4797 -122.3920 126° Southeast 284 327 14,800 2,533 Climbing FlightAware ADS-B
05:58PM 37.4670 -122.3710 127° Southeast 287 330 15,500 2,700 Climbing FlightAware ADS-B
05:58PM 37.4639 -122.3650 123° Southeast 287 330 15,700 2,667 Climbing FlightAware ADS-B
05:58PM 37.4611 -122.3590 120° Southeast 286 329 15,900 3,000 Climbing FlightAware ADS-B
05:58PM 37.4594 -122.3530 110° East 285 328 16,100 2,667 Climbing FlightAware ADS-B
05:59PM 37.4577 -122.3440 103° East 284 327 16,300 2,444 Climbing FlightAware ADS-B
05:59PM 37.4513 -122.3100 103° East 289 333 17,200 2,353 Climbing FlightAware ADS-B
05:59PM 37.4406 -122.2600 105° East 297 342 18,300 2,262 Climbing FlightAware ADS-B
06:00PM 37.4293 -122.2080 105° East 305 351 19,500 2,459 Climbing FlightAware ADS-B
06:00PM 37.4181 -122.1570 105° East 302 348 20,800 2,164 Climbing FlightAware ADS-B
06:01PM 37.4067 -122.1040 105° East 311 358 21,700 1,770 Climbing FlightAware ADS-B
06:01PM 37.3951 -122.0510 105° East 319 367 22,600 1,808 Climbing FlightAware ADS-B
06:02PM 37.3780 -121.9720 105° East 328 377 23,900 1,826 Climbing FlightAware ADS-B
06:03PM 37.3676 -121.9240 105° East 332 382 24,700 1,789 Climbing FlightAware ADS-B
06:03PM 37.3549 -121.8660 105° East 336 387 25,600 1,791 Climbing FlightAware ADS-B
06:04PM 37.3399 -121.7980 105° East 342 394 26,700 1,727 Climbing FlightAware ADS-B
06:04PM 37.3270 -121.7400 106° East 349 402 27,500 1,672 Climbing FlightAware ADS-B
06:05PM 37.3137 -121.6800 106° East 352 405 28,400 1,858 Climbing FlightAware ADS-B
06:06PM 37.2774 -121.5160 105° East 356 410 31,000 1,858 Climbing FlightAware ADS-B
06:07PM 37.2636 -121.4540 106° East 357 411 31,900 1,688 Climbing FlightAware ADS-B
06:07PM 37.2491 -121.3890 106° East 359 413 32,800 1,636 Climbing FlightAware ADS-B
06:08PM 37.2340 -121.3220 106° East 360 414 33,700 1,619 Climbing FlightAware ADS-B
06:08PM 37.2203 -121.2610 106° East 362 417 34,500 1,429 Climbing FlightAware ADS-B
06:09PM 37.2052 -121.1940 106° East 366 421 35,200 1,164 Climbing FlightAware ADS-B
06:09PM 37.1895 -121.1240 106° East 372 428 35,800 892 Climbing FlightAware ADS-B
06:10PM 37.1708 -121.0567 106° East 366 421 36,300 882 Climbing Los Angeles Center
06:11PM 37.1417 -120.9281 106° East 374 430 37,300 1,016 Climbing Los Angeles Center
06:12PM 37.1117 -120.7994 106° East 381 438 38,400 968 Climbing Los Angeles Center
06:13PM 37.0825 -120.6669 105° East 388 447 39,300 823 Climbing Los Angeles Center
06:14PM 37.0583 -120.5622 106° East 391 450 40,100 960 Climbing Los Angeles Center
06:15PM 37.0222 -120.4031 106° East 394 453 41,300 1,152 Climbing Los Angeles Center
06:16PM 36.9864 -120.2469 106° East 392 451 42,500 1,065 Climbing Los Angeles Center
06:17PM 36.9564 -120.1189 106° East 389 448 43,500 774 Climbing Los Angeles Center
06:18PM 36.9272 -119.9950 106° East 382 440 44,100 435 Climbing Los Angeles Center
06:19PM 36.8972 -119.8706 107° East 377 434 44,400 290 Climbing Los Angeles Center
06:20PM 36.8722 -119.7392 103° East 384 442 44,700 290 Climbing Los Angeles Center
06:21PM 36.8497 -119.5964 101° East 407 468 45,000 150 Climbing Los Angeles Center
06:22PM 36.8286 -119.4617 101° East 402 463 45,000  Level Oakland Center
06:23PM 36.8061 -119.3203 101° East 412 474 45,000  Level Oakland Center
06:24PM 36.7839 -119.1783 101° East 416 479 45,000  Level Oakland Center
06:25PM 36.7550 -119.0089 102° East 416 479 45,000  Level Oakland Center
06:26PM 36.7333 -118.8692 101° East 415 478 45,000  Level Oakland Center
06:27PM 36.7106 -118.7303 102° East 412 474 45,000  Level Oakland Center
06:28PM 36.6875 -118.5933 102° East 408 470 45,000  Level Oakland Center
06:29PM 36.6653 -118.4678 102° East 405 466 45,000  Level Oakland Center
06:31PM 36.6364 -118.2933 102° East 404 465 45,000  Level Los Angeles Center
06:32PM 36.6125 -118.1586 102° East 401 461 45,000  Level Los Angeles Center
06:33PM 36.5850 -117.9972 102° East 398 458 45,000  Level Los Angeles Center
06:34PM 36.5614 -117.8619 102° East 398 458 45,000  Level Los Angeles Center
06:35PM 36.5333 -117.7000 102° East 400 460 45,000  Level Los Angeles Center
06:36PM 36.5089 -117.5631 102° East 402 463 45,000  Level Los Angeles Center
06:37PM 36.4797 -117.3964 102° East 410 472 45,000  Level Los Angeles Center
06:38PM 36.4542 -117.2575 103° East 411 473 45,000  Level Los Angeles Center
06:39PM 36.4294 -117.1192 102° East 411 473 45,000  Level Los Angeles Center
06:40PM 36.4036 -116.9786 103° East 418 481 45,000  Level Los Angeles Center
06:41PM 36.3725 -116.8064 103° East 425 489 45,000  Level Los Angeles Center
06:42PM 36.3472 -116.6644 102° East 422 486 45,000  Level Los Angeles Center
06:43PM 36.3247 -116.5478 103° East 429 494 45,000  Level Los Angeles Center
06:45PM 36.2928 -116.3769 103° East 425 489 45,000  Level Los Angeles Center
06:46PM 36.2658 -116.2336 103° East 426 490 45,000  Level Los Angeles Center
06:47PM 36.2353 -116.0747 103° East 430 495 45,000  Level Los Angeles Center
06:48PM 36.2078 -115.9328 103° East 427 491 45,000  Level Los Angeles Center
06:49PM 36.1783 -115.7903 104° East 428 493 45,000  Level Los Angeles Center
06:50PM 36.1453 -115.6211 104° East 445 512 45,000  Level Los Angeles Center
06:51PM 36.1183 -115.4808 103° East 433 498 45,000  Level Los Angeles Center
06:52PM 36.0911 -115.3406 103° East 425 489 45,000  Level Los Angeles Center
06:53PM 36.0636 -115.1992 103° East 427 491 45,000  Level Los Angeles Center
06:54PM 36.0608 -115.0528 91° East 431 496 45,000  Level Los Angeles Center
06:55PM 36.0625 -114.8783 89° East 426 490 45,000  Level Los Angeles Center
06:56PM 36.0633 -114.7339 90° East 422 486 45,000  Level Los Angeles Center
06:57PM 36.0669 -114.5892 88° East 423 487 45,000  Level Los Angeles Center
06:58PM 36.0675 -114.4450 90° East 422 486 45,000  Level Los Angeles Center
06:59PM 36.0681 -114.3017 90° East 420 483 45,000  Level Los Angeles Center
07:00PM 36.0700 -114.1283 89° East 421 484 45,000  Level Los Angeles Center
07:01PM 36.0703 -113.9842 90° East 420 483 45,000  Level Los Angeles Center
07:02PM 36.0719 -113.8392 89° East 422 486 45,000  Level Los Angeles Center
07:03PM 36.0747 -113.6950 89° East 420 483 45,000  Level Los Angeles Center
07:04PM 36.0781 -113.5489 88° East 424 488 45,000  Level Los Angeles Center
07:05PM 36.0794 -113.4339 89° East 421 484 45,000  Level Los Angeles Center
07:06PM 36.0850 -113.2286 88° East 422 486 45,000  Level Los Angeles Center
07:07PM 36.0883 -113.0847 88° East 422 486 45,000  Level Los Angeles Center
07:08PM 36.0786 -112.9419 95° East 420 483 45,000  Level Los Angeles Center
07:09PM 36.0636 -112.7997 97° East 418 481 45,000  Level Los Angeles Center
07:10PM 36.0475 -112.6564 98° East 421 484 45,000  Level Los Angeles Center
07:11PM 36.0311 -112.5147 98° East 420 483 45,000  Level Los Angeles Center
07:12PM 36.0108 -112.3456 98° East 418 481 45,000  Level Los Angeles Center
07:14PM 35.9950 -112.2119 98° East 419 482 45,000  Level Los Angeles Center
07:15PM 35.9783 -112.0692 98° East 422 486 45,000  Level Los Angeles Center
07:16PM 35.9589 -111.9186 99° East 420 483 45,000  Level Los Angeles Center
07:17PM 35.9422 -111.7753 98° East 422 486 45,000  Level Los Angeles Center
07:18PM 35.9217 -111.6056 98° East 422 486 45,000  Level Denver Center
07:19PM 35.9033 -111.4639 99° East 420 483 45,000  Level Denver Center
07:20PM 35.8861 -111.3219 98° East 420 483 45,000  Level Denver Center
07:21PM 35.8697 -111.1889 99° East 420 483 45,000  Level Albuquerque Center
07:22PM 35.8508 -111.0367 99° East 422 486 45,000  Level Albuquerque Center
07:23PM 35.8314 -110.9014 100° East 420 483 45,000  Level Albuquerque Center
07:24PM 35.8117 -110.7411 99° East 422 486 45,000  Level Albuquerque Center
07:25PM 35.7922 -110.6053 100° East 421 484 45,000  Level Albuquerque Center
07:26PM 35.7742 -110.4692 99° East 421 484 45,000  Level Albuquerque Center
07:27PM 35.7539 -110.3100 99° East 421 484 45,000  Level Albuquerque Center
07:28PM 35.7353 -110.1736 100° East 423 487 45,000  Level Albuquerque Center
07:29PM 35.7128 -110.0142 100° East 423 487 45,000  Level Albuquerque Center
07:30PM 35.6939 -109.8781 100° East 423 487 45,000  Level Albuquerque Center
07:31PM 35.6758 -109.7422 99° East 422 486 45,000  Level Albuquerque Center
07:32PM 35.6539 -109.5825 100° East 423 487 45,000  Level Albuquerque Center
07:33PM 35.6336 -109.4442 100° East 428 493 45,000  Level Albuquerque Center
07:34PM 35.6100 -109.2833 100° East 430 495 45,000  Level Albuquerque Center
07:35PM 35.5903 -109.1450 100° East 431 496 45,000  Level Albuquerque Center
07:36PM 35.5669 -108.9847 100° East 430 495 45,000  Level Albuquerque Center
07:37PM 35.5464 -108.8478 100° East 429 494 45,000  Level Albuquerque Center
07:38PM 35.5261 -108.7106 100° East 429 494 45,000  Level Albuquerque Center
07:39PM 35.5017 -108.5486 100° East 432 497 45,000  Level Albuquerque Center
07:40PM 35.4819 -108.4108 100° East 432 497 45,000  Level Albuquerque Center
07:41PM 35.4572 -108.2497 101° East 431 496 45,000  Level Albuquerque Center
07:42PM 35.4364 -108.1128 101° East 430 495 45,000  Level Albuquerque Center
07:43PM 35.4147 -107.9753 101° East 430 495 45,000  Level Albuquerque Center
07:44PM 35.3897 -107.8147 101° East 430 495 45,000  Level Albuquerque Center
07:45PM 35.3672 -107.6775 101° East 431 496 45,000  Level Albuquerque Center
07:46PM 35.3417 -107.5161 101° East 432 497 45,000  Level Albuquerque Center
07:47PM 35.3211 -107.3764 100° East 434 499 45,000  Level Albuquerque Center
07:48PM 35.2978 -107.2400 102° East 430 495 45,000  Level Albuquerque Center
07:49PM 35.2703 -107.0733 101° East 433 498 45,000  Level Albuquerque Center
07:50PM 35.2467 -106.9286 101° East 434 499 45,000  Level Albuquerque Center
07:51PM 35.2231 -106.7844 101° East 433 498 45,000  Level Albuquerque Center
07:52PM 35.1972 -106.6272 101° East 436 502 45,000  Level Albuquerque Center
07:53PM 35.1742 -106.4969 102° East 444 511 45,000  Level Albuquerque Center
07:54PM 35.1483 -106.3500 102° East 446 513 45,000  Level Albuquerque Center
07:55PM 35.1189 -106.1792 102° East 436 502 45,000  Level Albuquerque Center
07:56PM 35.0947 -106.0347 102° East 438 504 45,000  Level Albuquerque Center
07:58PM 35.0692 -105.8889 102° East 441 507 45,000  Level Albuquerque Center
07:59PM 35.0439 -105.7478 102° East 433 498 45,000  Level Albuquerque Center
08:00PM 35.0172 -105.6042 103° East 435 501 45,000  Level Albuquerque Center
08:01PM 34.9878 -105.4342 102° East 439 505 45,000  Level Albuquerque Center
08:02PM 34.9619 -105.2892 102° East 438 504 45,000  Level Albuquerque Center
08:03PM 34.9344 -105.1422 103° East 440 506 45,000  Level Albuquerque Center
08:04PM 34.9089 -104.9975 102° East 436 502 45,000  Level Albuquerque Center
08:05PM 34.8825 -104.8542 103° East 433 498 45,000  Level Albuquerque Center
08:06PM 34.8558 -104.7108 103° East 433 498 45,000  Level Albuquerque Center
08:07PM 34.8300 -104.5686 102° East 430 495 45,000  Level Albuquerque Center
08:08PM 34.8031 -104.4272 103° East 429 494 45,000  Level Albuquerque Center
08:09PM 34.7767 -104.2858 103° East 429 494 45,000  Level Albuquerque Center
08:10PM 34.7453 -104.1219 103° East 426 490 45,000  Level Albuquerque Center
08:11PM 34.7194 -103.9803 102° East 428 493 45,000  Level Albuquerque Center
08:12PM 34.6922 -103.8400 103° East 426 490 45,000  Level Albuquerque Center
08:13PM 34.6658 -103.6997 103° East 425 489 45,000  Level Albuquerque Center
08:14PM 34.6372 -103.5597 104° East 424 488 45,000  Level Albuquerque Center
08:15PM 34.6103 -103.4206 103° East 422 486 45,000  Level Albuquerque Center
08:16PM 34.5831 -103.2817 103° East 421 484 45,000  Level Albuquerque Center
08:17PM 34.5558 -103.1442 103° East 419 482 45,000  Level Albuquerque Center
08:18PM 34.5275 -103.0047 104° East 422 486 45,000  Level Albuquerque Center
08:19PM 34.5000 -102.8656 103° East 421 484 45,000  Level Albuquerque Center
08:20PM 34.4786 -102.7131 100° East 421 484 45,000  Level Albuquerque Center
08:21PM 34.4653 -102.5775 97° East 417 480 45,000  Level Albuquerque Center
08:22PM 34.4522 -102.4425 97° East 412 474 45,000  Level Albuquerque Center
08:23PM 34.4381 -102.3094 97° East 407 468 45,000  Level Albuquerque Center
08:24PM 34.4219 -102.1517 97° East 401 461 45,000  Level Albuquerque Center
08:25PM 34.4086 -102.0197 97° East 398 458 45,000  Level Albuquerque Center
08:26PM 34.3944 -101.8875 97° East 398 458 45,000  Level Albuquerque Center
08:27PM 34.3794 -101.7536 98° East 401 461 45,000  Level Albuquerque Center
08:28PM 34.3650 -101.6194 97° East 403 464 45,000  Level Albuquerque Center
08:29PM 34.3500 -101.4869 98° East 401 461 45,000  Level Albuquerque Center
08:30PM 34.3347 -101.3528 98° East 403 464 45,000  Level Albuquerque Center
08:31PM 34.3194 -101.2178 98° East 405 466 45,000  Level Albuquerque Center
08:33PM 34.2986 -101.0258 97° East 416 479 45,000  Level Fort Worth Center
08:34PM 34.2817 -100.8844 98° East 416 479 45,000  Level Fort Worth Center
08:35PM 34.2644 -100.7456 98° East 416 479 45,000  Level Fort Worth Center
08:36PM 34.2494 -100.6069 97° East 416 479 45,000  Level Fort Worth Center
08:37PM 34.2319 -100.4681 99° East 416 479 45,000  Level Fort Worth Center
08:38PM 34.2144 -100.3294 99° East 411 473 45,000  Level Fort Worth Center
08:39PM 34.1903 -100.1931 102° East 411 473 45,000  Level Fort Worth Center
08:40PM 34.1536 -100.0586 108° East 411 473 45,000 -650 Level Fort Worth Center
08:41PM 34.1189 -99.9297 108° East 417 480 43,700 -1,800 Descending Fort Worth Center
08:42PM 34.0797 -99.7881 108° East 407 468 41,400 -2,250 Descending Fort Worth Center
08:43PM 34.0467 -99.6569 107° East 407 468 39,200 -1,200 Descending Fort Worth Center
08:44PM 34.0114 -99.5283 108° East 407 468 39,000 -100 Descending Fort Worth Center
08:45PM 33.9781 -99.4072 108° East 400 460 39,000  Level Fort Worth Center
08:46PM 33.9444 -99.2761 107° East 400 460 39,000 -600 Level Fort Worth Center
08:47PM 33.9086 -99.1528 109° East 400 460 37,800 -1,900 Descending Fort Worth Center
08:48PM 33.8769 -99.0297 107° East 390 449 35,200 -1,400 Descending Fort Worth Center
08:49PM 33.8597 -98.9142 100° East 378 435 35,000 -100 Descending Fort Worth Center
08:50PM 33.8611 -98.7867 89° East 366 421 35,000 -500 Level Fort Worth Center
08:51PM 33.8644 -98.6742 88° East 366 421 34,000 -1,500 Descending Fort Worth Center
08:52PM 33.8678 -98.5467 88° East 366 421 32,000 -2,000 Descending Fort Worth Center
08:53PM 33.8583 -98.4064 95° East 372 428 30,000 -2,050 Descending Fort Worth Center
08:54PM 33.8069 -98.2958 119° Southeast 372 428 27,900 -2,200 Descending Fort Worth Center
08:55PM 33.7597 -98.1781 116° Southeast 372 428 25,600 -2,350 Descending Fort Worth Center
08:56PM 33.7083 -98.0628 118° Southeast 385 443 23,200 -2,250 Descending Fort Worth Center
08:57PM 33.6669 -97.9675 118° Southeast 385 443 21,100 -2,150 Descending Fort Worth Center
08:58PM 33.6194 -97.8575 117° Southeast 375 432 18,900 -2,250 Descending Fort Worth Center
08:59PM 33.5697 -97.7450 118° Southeast 359 413 16,600 -2,100 Descending Fort Worth Center
09:00PM 33.5283 -97.6453 116° Southeast 340 391 14,700 -1,900 Descending Fort Worth Center
09:01PM 33.4867 -97.5506 118° Southeast 328 377 12,800 -1,850 Descending Fort Worth Center
09:02PM 33.4492 -97.4733 120° Southeast 311 358 11,000 -1,950 Descending Fort Worth Center
09:03PM 33.3864 -97.4036 137° Southeast 276 318 8,900 -1,900 Descending Fort Worth Center
09:04PM 33.3697 -97.3214 104° East 252 290 7,200 -1,900 Descending Fort Worth Center
09:05PM 33.3675 -97.2244 92° East 264 304 5,100 -1,550 Descending Fort Worth Center
09:06PM 33.3675 -97.1375 90° East 264 304 4,100 -500 Descending Fort Worth Center
09:07PM 33.3650 -97.0478 92° East 270 311 4,100  Level Fort Worth Center
09:08PM 33.3439 -96.9683 108° East 265 305 4,100  Level Fort Worth Center
09:09PM 33.3042 -96.8964 123° Southeast 259 298 4,100  Level Fort Worth Center
09:10PM 33.2558 -96.8347 133° Southeast 260 299 4,100  Level Fort Worth Center
09:11PM 33.1808 -96.8475 188° South 243 280 4,100 -350 Level Fort Worth Center
09:12PM 33.1181 -96.8628 192° South 258 297 3,400 -400 Descending Fort Worth Center
09:13PM 33.0431 -96.8831 193° South 256 295 3,300 -578 Descending Fort Worth Center
09:14PM 32.9667 -96.9000 191° South 199 229 2,100 -578 Descending Dallas / Fort Worth TRACON
09:15PM 32.9333 -96.9000 180° South 153 176 2,000 -300 Descending Dallas / Fort Worth TRACON
09:16PM 32.9000 -96.9000 180° South 111 128 1,500 -500 Descending Dallas / Fort Worth TRACON
09:17PM 32.8667 -96.8667 140° Southeast 108 124 1,000 -500 Descending Dallas / Fort Worth TRACON
09:19PM 32.8471 -96.8518 151° Southeast  Level Estimated